Wetterstation Vordersexau
Wetterdaten: Woche 27.10.14 - 02.11.14 (KW44)
Datum Zeit Temp. A. Feuchte A. Luftdruck Regen Wind Richtung Taupunkt Windchill Windben
27.10.2014 00:00 6,3 C 85 % 995,7 hPa 0,0 l/m 0,0 km/h S 4,0 C 6,3 C 0,0 km/h
27.10.2014 01:00 5,9 C 85 % 995,6 hPa 0,0 l/m 0,0 km/h S 3,6 C 5,9 C 0,0 km/h
27.10.2014 02:00 5,3 C 85 % 995,6 hPa 0,0 l/m 0,0 km/h S 3,0 C 5,3 C 0,0 km/h
27.10.2014 03:00 4,7 C 85 % 995,7 hPa 0,0 l/m 0,0 km/h S 2,4 C 4,7 C 0,0 km/h
27.10.2014 04:00 4,2 C 85 % 996,1 hPa 0,0 l/m 0,0 km/h S 1,9 C 4,2 C 0,0 km/h
27.10.2014 05:00 4,5 C 85 % 996,1 hPa 0,0 l/m 0,0 km/h S 2,2 C 4,5 C 0,0 km/h
27.10.2014 06:00 5,0 C 84 % 996,0 hPa 0,0 l/m 0,0 km/h S 2,5 C 5,0 C 0,0 km/h
27.10.2014 07:00 5,4 C 83 % 996,3 hPa 0,0 l/m 0,0 km/h S 2,7 C 5,4 C 0,0 km/h
27.10.2014 08:00 8,0 C 80 % 996,5 hPa 0,0 l/m 0,0 km/h S-SW 4,8 C 8,0 C 0,0 km/h
27.10.2014 09:00 9,5 C 82 % 996,6 hPa 0,0 l/m 0,0 km/h S-SW 6,6 C 9,5 C 0,0 km/h
27.10.2014 10:00 9,9 C 83 % 996,6 hPa 0,0 l/m 0,0 km/h W 7,2 C 9,9 C 0,0 km/h
27.10.2014 11:00 11,6 C 86 % 996,0 hPa 0,0 l/m 0,0 km/h W 9,3 C 11,6 C 0,0 km/h
27.10.2014 12:00 13,2 C 83 % 995,1 hPa 0,0 l/m 0,0 km/h W-NW 10,4 C 13,2 C 0,0 km/h
27.10.2014 13:00 11,8 C 82 % 994,7 hPa 0,0 l/m 0,0 km/h W-NW 8,8 C 11,8 C 0,0 km/h
27.10.2014 14:00 10,9 C 84 % 994,4 hPa 0,0 l/m 0,0 km/h W 8,3 C 10,9 C 0,0 km/h
27.10.2014 15:00 10,8 C 84 % 994,2 hPa 0,0 l/m 0,0 km/h W 8,2 C 10,8 C 0,0 km/h
27.10.2014 16:00 10,4 C 85 % 994,1 hPa 0,0 l/m 0,0 km/h W-NW 8,0 C 10,4 C 0,0 km/h
27.10.2014 17:00 9,7 C 85 % 994,4 hPa 0,0 l/m 0,0 km/h N 7,3 C 9,7 C 0,0 km/h
27.10.2014 18:00 9,3 C 85 % 994,4 hPa 0,0 l/m 0,0 km/h N 6,9 C 9,3 C 0,0 km/h
27.10.2014 19:00 9,3 C 85 % 994,1 hPa 0,0 l/m 0,0 km/h N 6,9 C 9,3 C 0,0 km/h
27.10.2014 20:00 8,2 C 86 % 994,3 hPa 0,0 l/m 0,0 km/h N 6,0 C 8,2 C 0,0 km/h
27.10.2014 21:00 8,4 C 85 % 994,0 hPa 0,0 l/m 0,0 km/h N 6,0 C 8,4 C 0,0 km/h
27.10.2014 22:00 7,0 C 85 % 993,8 hPa 0,0 l/m 0,0 km/h O-SO 4,7 C 7,0 C 0,0 km/h
27.10.2014 23:00 7,6 C 84 % 993,7 hPa 0,0 l/m 0,0 km/h SO 5,1 C 7,6 C 0,0 km/h
28.10.2014 00:00 7,8 C 84 % 993,1 hPa 0,0 l/m 0,0 km/h SO 5,3 C 7,8 C 0,0 km/h
28.10.2014 01:00 7,7 C 85 % 992,8 hPa 0,0 l/m 0,0 km/h SO 5,3 C 7,7 C 0,0 km/h
28.10.2014 02:00 7,5 C 86 % 992,4 hPa 0,0 l/m 0,0 km/h SO 5,3 C 7,5 C 0,0 km/h
28.10.2014 03:00 6,9 C 86 % 992,3 hPa 0,0 l/m 0,0 km/h SO 4,7 C 6,9 C 0,0 km/h
28.10.2014 04:00 5,9 C 86 % 992,3 hPa 0,0 l/m 0,0 km/h SO 3,7 C 5,9 C 0,0 km/h
28.10.2014 05:00 5,3 C 86 % 992,2 hPa 0,0 l/m 0,0 km/h SO 3,2 C 5,3 C 0,0 km/h
28.10.2014 06:00 4,0 C 86 % 992,0 hPa 0,0 l/m 11,0 km/h O-SO 1,9 C 0,3 C 6,1 km/h
28.10.2014 07:00 4,1 C 86 % 992,3 hPa 0,0 l/m 0,0 km/h SO 2,0 C 4,1 C 0,0 km/h
28.10.2014 08:00 8,5 C 85 % 992,2 hPa 0,0 l/m 0,0 km/h O 6,1 C 8,5 C 0,0 km/h
28.10.2014 09:00 10,2 C 80 % 991,9 hPa 0,0 l/m 0,0 km/h SO 6,9 C 10,2 C 0,0 km/h
28.10.2014 10:00 15,7 C 70 % 991,6 hPa 0,0 l/m 15,6 km/h W-NW 10,2 C 11,9 C 8,6 km/h
28.10.2014 11:00 19,4 C 56 % 990,8 hPa 0,0 l/m 10,4 km/h W 10,4 C 17,8 C 5,8 km/h
28.10.2014 12:00 18,2 C 58 % 990,1 hPa 0,0 l/m 0,0 km/h N 9,8 C 18,2 C 0,0 km/h
28.10.2014 13:00 19,4 C 54 % 989,2 hPa 0,0 l/m 0,0 km/h W 9,8 C 19,4 C 0,0 km/h
28.10.2014 14:00 20,9 C 52 % 988,9 hPa 0,0 l/m 2,6 km/h W 10,7 C 20,9 C 1,4 km/h
28.10.2014 15:00 19,3 C 55 % 988,5 hPa 0,0 l/m 0,0 km/h W-NW 10,0 C 19,3 C 0,0 km/h
28.10.2014 16:00 15,4 C 62 % 988,2 hPa 0,0 l/m 0,0 km/h W-NW 8,2 C 15,4 C 0,0 km/h
28.10.2014 17:00 7,6 C 74 % 988,8 hPa 0,0 l/m 0,0 km/h W-NW 3,3 C 7,6 C 0,0 km/h
28.10.2014 18:00 5,8 C 79 % 988,8 hPa 0,0 l/m 0,0 km/h W-NW 2,4 C 5,8 C 0,0 km/h
28.10.2014 19:00 5,6 C 83 % 988,8 hPa 0,0 l/m 0,0 km/h W-NW 2,9 C 5,6 C 0,0 km/h
28.10.2014 20:00 6,4 C 84 % 988,8 hPa 0,0 l/m 0,0 km/h W-NW 3,9 C 6,4 C 0,0 km/h
28.10.2014 21:00 7,3 C 85 % 988,8 hPa 0,0 l/m 0,0 km/h W-NW 4,9 C 7,3 C 0,0 km/h
28.10.2014 22:00 6,2 C 85 % 988,6 hPa 0,0 l/m 0,0 km/h W-NW 3,9 C 6,2 C 0,0 km/h
28.10.2014 23:00 4,3 C 85 % 988,9 hPa 0,0 l/m 0,0 km/h W-NW 2,0 C 4,3 C 0,0 km/h
29.10.2014 00:00 4,2 C 86 % 988,4 hPa 0,0 l/m 0,0 km/h W-NW 2,1 C 4,2 C 0,0 km/h
29.10.2014 01:00 2,9 C 86 % 988,6 hPa 0,0 l/m 0,0 km/h W-NW 0,8 C 2,9 C 0,0 km/h
29.10.2014 02:00 2,9 C 86 % 988,4 hPa 0,0 l/m 0,0 km/h W-NW 0,8 C 2,9 C 0,0 km/h
29.10.2014 03:00 2,9 C 86 % 988,4 hPa 0,0 l/m 0,0 km/h W-NW 0,8 C 2,9 C 0,0 km/h
29.10.2014 04:00 2,8 C 86 % 988,5 hPa 0,0 l/m 0,0 km/h W-NW 0,7 C 2,8 C 0,0 km/h
29.10.2014 05:00 2,5 C 86 % 988,7 hPa 0,0 l/m 0,0 km/h W 0,4 C 2,5 C 0,0 km/h
29.10.2014 06:00 2,9 C 85 % 988,9 hPa 0,0 l/m 0,0 km/h SO 0,6 C 2,9 C 0,0 km/h
29.10.2014 07:00 3,1 C 85 % 989,2 hPa 0,0 l/m 0,0 km/h SO 0,8 C 3,1 C 0,0 km/h
29.10.2014 08:00 7,8 C 78 % 989,3 hPa 0,0 l/m 0,0 km/h SO 4,2 C 7,8 C 0,0 km/h
29.10.2014 09:00 14,1 C 84 % 989,7 hPa 0,0 l/m 0,0 km/h N-NO 11,4 C 14,1 C 0,0 km/h
29.10.2014 10:00 19,9 C 64 % 989,9 hPa 0,0 l/m 0,0 km/h W-SW 12,9 C 19,9 C 0,0 km/h
29.10.2014 11:00 19,0 C 62 % 989,5 hPa 0,0 l/m 9,1 km/h W-SW 11,6 C 17,9 C 5,0 km/h
29.10.2014 12:00 18,6 C 62 % 989,1 hPa 0,0 l/m 3,6 km/h SW 11,2 C 18,6 C 3,6 km/h
29.10.2014 13:00 20,8 C 57 % 988,9 hPa 0,0 l/m 1,1 km/h W-SW 12,0 C 20,8 C 1,1 km/h
29.10.2014 14:00 23,2 C 49 % 988,9 hPa 0,0 l/m 0,0 km/h W 11,9 C 23,2 C 0,0 km/h
29.10.2014 15:00 22,9 C 48 % 989,3 hPa 0,0 l/m 0,0 km/h S 11,3 C 22,9 C 0,0 km/h
29.10.2014 16:00 18,8 C 56 % 988,9 hPa 0,0 l/m 0,0 km/h S 9,8 C 18,8 C 0,0 km/h
29.10.2014 17:00 10,2 C 75 % 989,6 hPa 0,0 l/m 0,0 km/h SO 6,0 C 10,2 C 0,0 km/h
29.10.2014 18:00 8,6 C 82 % 990,1 hPa 0,0 l/m 0,0 km/h SO 5,7 C 8,6 C 0,0 km/h
29.10.2014 19:00 8,6 C 84 % 990,5 hPa 0,0 l/m 0,0 km/h SO 6,1 C 8,6 C 0,0 km/h
29.10.2014 20:00 8,3 C 84 % 991,2 hPa 0,0 l/m 0,0 km/h SO 5,8 C 8,3 C 0,0 km/h
29.10.2014 21:00 8,3 C 85 % 992,0 hPa 0,0 l/m 0,0 km/h SO 5,9 C 8,3 C 0,0 km/h
29.10.2014 22:00 8,8 C 85 % 992,1 hPa 0,0 l/m 0,0 km/h SO 6,4 C 8,8 C 0,0 km/h
29.10.2014 23:00 8,9 C 85 % 992,5 hPa 0,2 l/m 0,0 km/h SO 6,5 C 8,9 C 0,0 km/h
30.10.2014 00:00 8,9 C 85 % 992,7 hPa 0,0 l/m 0,0 km/h SO 6,5 C 8,9 C 0,0 km/h
30.10.2014 01:00 9,1 C 85 % 992,9 hPa 0,0 l/m 1,1 km/h SO 6,7 C 9,1 C 1,1 km/h
30.10.2014 02:00 9,3 C 84 % 992,8 hPa 0,4 l/m 0,0 km/h SO 6,7 C 9,3 C 0,0 km/h
30.10.2014 03:00 9,4 C 84 % 993,0 hPa 0,0 l/m 0,0 km/h O-SO 6,8 C 9,4 C 0,0 km/h
30.10.2014 04:00 9,6 C 83 % 993,1 hPa 0,0 l/m 0,0 km/h SO 6,9 C 9,6 C 0,0 km/h
30.10.2014 05:00 9,8 C 83 % 993,1 hPa 0,0 l/m 0,0 km/h SO 7,1 C 9,8 C 0,0 km/h
30.10.2014 06:00 9,9 C 83 % 993,5 hPa 0,0 l/m 0,0 km/h SO 7,2 C 9,9 C 0,0 km/h
30.10.2014 07:00 10,2 C 82 % 994,4 hPa 0,0 l/m 0,0 km/h W-SW 7,3 C 10,2 C 0,0 km/h
30.10.2014 08:00 11,1 C 82 % 994,7 hPa 0,0 l/m 0,0 km/h SW 8,1 C 11,1 C 0,0 km/h
30.10.2014 09:00 12,2 C 84 % 995,3 hPa 0,0 l/m 0,0 km/h SO 9,6 C 12,2 C 0,0 km/h
30.10.2014 10:00 14,1 C 85 % 995,1 hPa 0,0 l/m 11,0 km/h N-NO 11,6 C 11,7 C 6,1 km/h
30.10.2014 11:00 17,9 C 74 % 995,1 hPa 0,0 l/m 7,8 km/h W 13,2 C 17,2 C 4,3 km/h
30.10.2014 12:00 20,4 C 63 % 995,1 hPa 0,0 l/m 0,0 km/h W-SW 13,1 C 20,4 C 0,0 km/h
30.10.2014 13:00 22,1 C 52 % 994,9 hPa 0,0 l/m 0,0 km/h S 11,8 C 22,1 C 0,0 km/h
30.10.2014 14:00 24,5 C 47 % 994,5 hPa 0,0 l/m 0,0 km/h W 12,4 C 24,5 C 0,0 km/h
30.10.2014 15:00 24,6 C 49 % 994,5 hPa 0,0 l/m 0,0 km/h S-SO 13,2 C 24,6 C 0,0 km/h
30.10.2014 16:00 19,4 C 59 % 994,8 hPa 0,0 l/m 0,0 km/h S-SO 11,2 C 19,4 C 0,0 km/h
30.10.2014 17:00 11,6 C 77 % 995,3 hPa 0,0 l/m 0,0 km/h S-SO 7,7 C 11,6 C 0,0 km/h
30.10.2014 18:00 9,9 C 82 % 995,5 hPa 0,0 l/m 0,0 km/h S-SO 7,0 C 9,9 C 0,0 km/h
30.10.2014 19:00 9,4 C 84 % 995,6 hPa 0,0 l/m 0,0 km/h S-SO 6,8 C 9,4 C 0,0 km/h
30.10.2014 20:00 9,1 C 85 % 995,8 hPa 0,0 l/m 0,0 km/h SO 6,7 C 9,1 C 0,0 km/h
30.10.2014 21:00 8,6 C 85 % 996,1 hPa 0,0 l/m 0,0 km/h SO 6,2 C 8,6 C 0,0 km/h
30.10.2014 22:00 7,9 C 85 % 996,2 hPa 0,0 l/m 0,0 km/h O-NO 5,5 C 7,9 C 0,0 km/h
30.10.2014 23:00 8,1 C 85 % 996,1 hPa 0,0 l/m 0,0 km/h O-NO 5,7 C 8,1 C 0,0 km/h
31.10.2014 00:00 7,3 C 85 % 996,3 hPa 0,0 l/m 0,0 km/h NO 4,9 C 7,3 C 0,0 km/h
31.10.2014 01:00 6,9 C 85 % 996,1 hPa 0,0 l/m 0,0 km/h NO 4,6 C 6,9 C 0,0 km/h
31.10.2014 02:00 6,2 C 85 % 996,3 hPa 0,0 l/m 0,0 km/h O-NO 3,9 C 6,2 C 0,0 km/h
31.10.2014 03:00 6,1 C 84 % 995,9 hPa 0,0 l/m 0,0 km/h NO 3,6 C 6,1 C 0,0 km/h
31.10.2014 04:00 6,1 C 84 % 996,0 hPa 0,0 l/m 0,0 km/h NO 3,6 C 6,1 C 0,0 km/h
31.10.2014 05:00 5,0 C 84 % 995,8 hPa 0,0 l/m 0,0 km/h NO 2,5 C 5,0 C 0,0 km/h
31.10.2014 06:00 5,6 C 84 % 995,8 hPa 0,0 l/m 0,0 km/h O-NO 3,1 C 5,6 C 0,0 km/h
31.10.2014 07:00 6,1 C 83 % 995,9 hPa 0,0 l/m 0,0 km/h O-NO 3,4 C 6,1 C 0,0 km/h
31.10.2014 08:00 8,4 C 80 % 996,3 hPa 0,0 l/m 0,0 km/h N-NO 5,2 C 8,4 C 0,0 km/h
31.10.2014 09:00 15,8 C 81 % 996,4 hPa 0,0 l/m 0,0 km/h SO 12,5 C 15,8 C 0,0 km/h
31.10.2014 10:00 21,7 C 64 % 996,5 hPa 0,0 l/m 0,0 km/h SW 14,6 C 21,7 C 0,0 km/h
31.10.2014 11:00 21,4 C 60 % 996,3 hPa 0,0 l/m 0,0 km/h S 13,3 C 21,4 C 0,0 km/h
31.10.2014 12:00 21,9 C 59 % 995,7 hPa 0,0 l/m 0,0 km/h NW 13,5 C 21,9 C 0,0 km/h
31.10.2014 13:00 23,3 C 54 % 994,8 hPa 0,0 l/m 0,0 km/h W 13,5 C 23,3 C 0,0 km/h
31.10.2014 14:00 25,8 C 49 % 994,7 hPa 0,0 l/m 0,0 km/h W 14,3 C 25,8 C 0,0 km/h
31.10.2014 15:00 25,7 C 50 % 994,7 hPa 0,0 l/m 0,0 km/h W-SW 14,5 C 25,7 C 0,0 km/h
31.10.2014 16:00 17,1 C 65 % 994,5 hPa 0,0 l/m 0,0 km/h SW 10,5 C 17,1 C 0,0 km/h
31.10.2014 17:00 12,4 C 78 % 994,5 hPa 0,0 l/m 0,0 km/h S 8,7 C 12,4 C 0,0 km/h
31.10.2014 18:00 11,0 C 82 % 994,7 hPa 0,0 l/m 0,0 km/h S 8,0 C 11,0 C 0,0 km/h
31.10.2014 19:00 10,3 C 84 % 994,4 hPa 0,0 l/m 0,0 km/h S 7,7 C 10,3 C 0,0 km/h
31.10.2014 20:00 9,4 C 84 % 994,8 hPa 0,0 l/m 0,0 km/h S-SO 6,8 C 9,4 C 0,0 km/h
31.10.2014 21:00 8,9 C 85 % 995,0 hPa 0,0 l/m 0,0 km/h S-SO 6,5 C 8,9 C 0,0 km/h
31.10.2014 22:00 8,0 C 85 % 995,0 hPa 0,0 l/m 0,0 km/h S-SO 5,6 C 8,0 C 0,0 km/h
31.10.2014 23:00 7,9 C 85 % 994,7 hPa 0,0 l/m 0,0 km/h S-SO 5,5 C 7,9 C 0,0 km/h
01.11.2014 00:00 7,4 C 85 % 994,4 hPa 0,0 l/m 0,0 km/h S-SO 5,0 C 7,4 C 0,0 km/h
01.11.2014 01:00 6,9 C 85 % 994,3 hPa 0,0 l/m 0,0 km/h S-SO 4,6 C 6,9 C 0,0 km/h
01.11.2014 02:00 6,4 C 85 % 993,9 hPa 0,0 l/m 0,0 km/h S-SO 4,1 C 6,4 C 0,0 km/h
01.11.2014 03:00 6,2 C 84 % 993,7 hPa 0,0 l/m 0,0 km/h S-SO 3,7 C 6,2 C 0,0 km/h
01.11.2014 04:00 5,8 C 84 % 993,8 hPa 0,0 l/m 0,0 km/h S-SO 3,3 C 5,8 C 0,0 km/h
01.11.2014 05:00 6,1 C 84 % 993,4 hPa 0,0 l/m 0,0 km/h S-SO 3,6 C 6,1 C 0,0 km/h
01.11.2014 06:00 5,6 C 84 % 993,6 hPa 0,0 l/m 0,0 km/h S-SO 3,1 C 5,6 C 0,0 km/h
01.11.2014 07:00 5,4 C 84 % 993,7 hPa 0,0 l/m 0,0 km/h S-SO 2,9 C 5,4 C 0,0 km/h
01.11.2014 08:00 9,8 C 79 % 993,9 hPa 0,0 l/m 0,0 km/h S-SO 6,3 C 9,8 C 0,0 km/h
01.11.2014 09:00 16,0 C 84 % 994,1 hPa 0,0 l/m 0,0 km/h W-NW 13,3 C 16,0 C 0,0 km/h
01.11.2014 10:00 20,8 C 67 % 993,9 hPa 0,0 l/m 0,0 km/h W-SW 14,4 C 20,8 C 0,0 km/h
01.11.2014 11:00 21,7 C 62 % 993,6 hPa 0,0 l/m 0,0 km/h W-SW 14,1 C 21,7 C 0,0 km/h
01.11.2014 12:00 21,8 C 59 % 992,8 hPa 0,0 l/m 0,0 km/h W-SW 13,4 C 21,8 C 0,0 km/h
01.11.2014 13:00 23,6 C 53 % 992,5 hPa 0,0 l/m 0,0 km/h NW 13,4 C 23,6 C 0,0 km/h
01.11.2014 14:00 25,8 C 48 % 992,3 hPa 0,0 l/m 0,0 km/h NW 13,9 C 25,8 C 0,0 km/h
01.11.2014 15:00 27,1 C 45 % 992,0 hPa 0,0 l/m 0,0 km/h S 14,1 C 27,1 C 0,0 km/h
01.11.2014 16:00 21,3 C 55 % 991,7 hPa 0,0 l/m 0,0 km/h S-SO 11,9 C 21,3 C 0,0 km/h
01.11.2014 17:00 12,2 C 74 % 992,0 hPa 0,0 l/m 0,0 km/h SO 7,7 C 12,2 C 0,0 km/h
01.11.2014 18:00 10,8 C 82 % 992,1 hPa 0,0 l/m 0,0 km/h SO 7,9 C 10,8 C 0,0 km/h
01.11.2014 19:00 10,1 C 84 % 992,1 hPa 0,0 l/m 1,9 km/h O-SO 7,5 C 10,1 C 1,1 km/h
01.11.2014 20:00 9,5 C 84 % 992,0 hPa 0,0 l/m 0,0 km/h O-SO 6,9 C 9,5 C 0,0 km/h
01.11.2014 21:00 9,2 C 85 % 991,8 hPa 0,0 l/m 0,0 km/h O 6,8 C 9,2 C 0,0 km/h
01.11.2014 22:00 8,0 C 85 % 991,6 hPa 0,0 l/m 0,0 km/h O 5,6 C 8,0 C 0,0 km/h
01.11.2014 23:00 7,3 C 85 % 991,2 hPa 0,0 l/m 0,0 km/h N-NO 4,9 C 7,3 C 0,0 km/h
02.11.2014 00:00 6,8 C 85 % 991,4 hPa 0,0 l/m 0,0 km/h N-NO 4,5 C 6,8 C 0,0 km/h
02.11.2014 01:00 5,6 C 85 % 991,4 hPa 0,0 l/m 0,0 km/h NO 3,3 C 5,6 C 0,0 km/h
02.11.2014 02:00 6,4 C 84 % 990,5 hPa 0,0 l/m 0,0 km/h NO 3,9 C 6,4 C 0,0 km/h
02.11.2014 03:00 5,1 C 85 % 990,4 hPa 0,0 l/m 0,0 km/h O-NO 2,8 C 5,1 C 0,0 km/h
02.11.2014 04:00 5,6 C 84 % 990,5 hPa 0,0 l/m 0,0 km/h SO 3,1 C 5,6 C 0,0 km/h
02.11.2014 05:00 5,9 C 84 % 990,2 hPa 0,0 l/m 0,0 km/h SO 3,4 C 5,9 C 0,0 km/h
02.11.2014 06:00 6,4 C 83 % 990,4 hPa 0,0 l/m 0,0 km/h O-SO 3,7 C 6,4 C 0,0 km/h
02.11.2014 07:00 6,4 C 82 % 990,3 hPa 0,0 l/m 0,0 km/h SO 3,6 C 6,4 C 0,0 km/h
02.11.2014 08:00 10,2 C 73 % 990,3 hPa 0,0 l/m 0,0 km/h SO 5,6 C 10,2 C 0,0 km/h
02.11.2014 09:00 18,0 C 80 % 990,1 hPa 0,0 l/m 0,0 km/h W 14,5 C 18,0 C 0,0 km/h
02.11.2014 10:00 23,2 C 57 % 989,7 hPa 0,0 l/m 0,0 km/h SW 14,2 C 23,2 C 0,0 km/h
02.11.2014 11:00 20,5 C 63 % 989,0 hPa 0,0 l/m 7,8 km/h W 13,2 C 20,0 C 4,3 km/h
02.11.2014 12:00 22,3 C 61 % 988,1 hPa 0,0 l/m 0,0 km/h W 14,4 C 22,3 C 0,0 km/h
02.11.2014 13:00 22,7 C 58 % 987,3 hPa 0,0 l/m 0,0 km/h W 14,0 C 22,7 C 0,0 km/h
02.11.2014 14:00 24,1 C 53 % 986,5 hPa 0,0 l/m 1,9 km/h SW 13,9 C 24,1 C 1,1 km/h
02.11.2014 15:00 22,8 C 53 % 985,8 hPa 0,0 l/m 0,0 km/h W 12,7 C 22,8 C 0,0 km/h
02.11.2014 16:00 17,5 C 64 % 985,4 hPa 0,0 l/m 0,0 km/h W 10,6 C 17,5 C 0,0 km/h
02.11.2014 17:00 12,3 C 76 % 985,5 hPa 0,0 l/m 0,0 km/h SO 8,2 C 12,3 C 0,0 km/h
02.11.2014 18:00 11,3 C 81 % 985,4 hPa 0,0 l/m 0,0 km/h SO 8,2 C 11,3 C 0,0 km/h
02.11.2014 19:00 10,6 C 83 % 985,0 hPa 0,0 l/m 0,0 km/h O-SO 7,8 C 10,6 C 0,0 km/h
02.11.2014 20:00 10,3 C 84 % 985,0 hPa 0,0 l/m 0,0 km/h SO 7,7 C 10,3 C 0,0 km/h
02.11.2014 21:00 9,9 C 85 % 984,8 hPa 0,0 l/m 0,0 km/h SO 7,5 C 9,9 C 0,0 km/h
02.11.2014 22:00 9,4 C 84 % 984,5 hPa 0,0 l/m 0,0 km/h O-SO 6,8 C 9,4 C 0,0 km/h
02.11.2014 23:00 8,9 C 85 % 984,0 hPa 0,0 l/m 5,8 km/h SO 6,5 C 8,9 C 5,8 km/h
Min-Datum _ 29.10.14 01.11.14 02.11.14 - 27.10.14 - 29.10.14 28.10.14 27.10.14
_ Min-Zeit 05:53 15:53 23:53 - 00:53 - 05:53 06:53 00:53
Minimum _ 2,5 C 45 % 984,0 hPa - 0,0 km/h - 0,4 C 0,3 C 0,0 km/h
Max-Datum _ 01.11.14 27.10.14 27.10.14 30.10.14 28.10.14 - 31.10.14 01.11.14 28.10.14
_ Max-Zeit 15:53 11:53 09:53 02:53 10:53 - 10:53 15:53 10:53
Maximum _ 27,1 C 86 % 996,6 hPa 0,4 l/m 15,6 km/h
W-NW
- 14,6 C 27,1 C 8,6 km/h
W-NW
Durchschnitt _ 11,3 C 77 % 992,3 hPa #0,6 l/m 0,5 km/h SO 7,2 C 11,2 C 0,3 km/h
www.sexauwetter.de